createdAt,value
2022-09-30T00:01:16.252Z,98475.69
2022-09-30T00:03:43.765Z,98480.00
2022-09-30T00:06:11.420Z,98468.97
2022-09-30T00:08:38.773Z,98465.28
2022-09-30T00:11:13.781Z,98471.53
2022-09-30T00:13:41.490Z,98481.16
2022-09-30T00:16:10.271Z,98481.69
2022-09-30T00:18:38.491Z,98479.22
2022-09-30T00:21:06.977Z,98470.41
2022-09-30T00:23:34.436Z,98484.53
2022-09-30T00:26:03.626Z,98482.06
2022-09-30T00:28:31.093Z,98484.59
2022-09-30T00:31:02.706Z,98489.19
2022-09-30T00:33:29.684Z,98511.16
2022-09-30T00:35:59.701Z,98507.41
2022-09-30T00:38:26.896Z,98492.91
2022-09-30T00:40:54.718Z,98494.41
2022-09-30T00:43:43.676Z,98490.06
2022-09-30T00:46:20.849Z,98494.16
2022-09-30T00:48:54.102Z,98505.38
2022-09-30T00:51:32.937Z,98497.53
2022-09-30T00:54:07.398Z,98504.41
2022-09-30T00:56:45.258Z,98493.13
2022-09-30T00:59:29.679Z,98500.31
2022-09-30T01:01:56.685Z,98515.69
2022-09-30T01:04:25.854Z,98499.31
2022-09-30T01:06:53.077Z,98509.59
2022-09-30T01:09:20.511Z,98505.19
2022-09-30T01:11:48.326Z,98492.03
2022-09-30T01:14:19.079Z,98475.44
2022-09-30T01:17:05.408Z,98463.91
2022-09-30T01:19:35.326Z,98461.47
2022-09-30T01:22:42.083Z,98462.34
2022-09-30T01:25:28.010Z,98462.97
2022-09-30T01:28:16.055Z,98457.69
2022-09-30T01:31:05.157Z,98449.94
2022-09-30T01:34:10.304Z,98462.91
2022-09-30T01:36:48.843Z,98470.94
2022-09-30T01:40:03.218Z,98473.66
2022-09-30T01:43:09.990Z,98486.88
2022-09-30T01:45:49.475Z,98489.69
2022-09-30T01:48:57.298Z,98485.44
2022-09-30T01:51:48.485Z,98495.16
2022-09-30T01:54:24.578Z,98492.69
2022-09-30T01:56:59.330Z,98494.50
2022-09-30T01:59:43.303Z,98479.78
2022-09-30T02:02:19.728Z,98481.56
2022-09-30T02:04:58.726Z,98463.41
2022-09-30T02:07:48.963Z,98470.50
2022-09-30T02:10:25.605Z,98484.53
2022-09-30T02:12:56.282Z,98491.47
2022-09-30T02:15:26.694Z,98494.91
2022-09-30T02:18:03.722Z,98515.09
2022-09-30T02:20:35.862Z,98514.19
2022-09-30T02:23:08.621Z,98502.97
2022-09-30T02:25:42.366Z,98509.03
2022-09-30T02:28:17.264Z,98497.81
2022-09-30T02:30:49.552Z,98499.53
2022-09-30T02:33:23.464Z,98489.97
2022-09-30T02:35:54.738Z,98496.03
2022-09-30T02:38:37.323Z,98497.00
2022-09-30T02:41:12.616Z,98505.19
2022-09-30T02:43:42.344Z,98503.63
2022-09-30T02:46:27.852Z,98515.56
2022-09-30T02:49:10.030Z,98507.06
2022-09-30T02:51:56.917Z,98496.66
2022-09-30T02:54:29.341Z,98497.50
2022-09-30T02:57:07.174Z,98501.75
2022-09-30T02:59:34.155Z,98497.41
2022-09-30T03:02:01.219Z,98491.31
2022-09-30T03:04:34.113Z,98489.53
2022-09-30T03:07:01.542Z,98490.34
2022-09-30T03:09:29.126Z,98488.56
2022-09-30T03:12:08.379Z,98480.81
2022-09-30T03:14:50.780Z,98495.56
2022-09-30T03:17:39.465Z,98504.22
2022-09-30T03:20:14.952Z,98501.63
2022-09-30T03:22:51.442Z,98509.47
2022-09-30T03:25:32.767Z,98496.47
2022-09-30T03:28:05.193Z,98500.72
2022-09-30T03:30:44.002Z,98506.84
2022-09-30T03:33:38.802Z,98502.53
2022-09-30T03:36:35.037Z,98519.03
2022-09-30T03:39:24.506Z,98527.69
2022-09-30T03:42:07.920Z,98525.13
2022-09-30T03:44:50.859Z,98539.91
2022-09-30T03:47:20.172Z,98537.22
2022-09-30T03:49:52.102Z,98529.31
2022-09-30T03:52:19.696Z,98512.69
2022-09-30T03:54:53.641Z,98504.84
2022-09-30T03:57:20.929Z,98506.50
2022-09-30T03:59:47.932Z,98509.94
2022-09-30T04:02:14.883Z,98512.63
2022-09-30T04:04:42.837Z,98526.63
2022-09-30T04:07:10.704Z,98546.66
2022-09-30T04:09:38.823Z,98542.13
2022-09-30T04:12:06.218Z,98549.06
2022-09-30T04:14:33.916Z,98550.88
2022-09-30T04:17:01.031Z,98568.19
2022-09-30T04:19:28.265Z,98567.22
2022-09-30T04:21:55.557Z,98557.66
2022-09-30T04:24:24.463Z,98559.31
2022-09-30T04:26:51.923Z,98572.38
2022-09-30T04:29:18.916Z,98559.97
2022-09-30T04:31:48.717Z,98558.00
2022-09-30T04:34:15.646Z,98564.69
2022-09-30T04:36:42.626Z,98575.06
2022-09-30T04:39:09.775Z,98581.94
2022-09-30T04:41:37.086Z,98589.69
2022-09-30T04:44:07.318Z,98571.41
2022-09-30T04:46:36.963Z,98585.25
2022-09-30T04:49:08.668Z,98588.69
2022-09-30T04:51:37.033Z,98588.69
2022-09-30T04:54:04.859Z,98581.78
2022-09-30T04:56:31.665Z,98580.72
2022-09-30T04:58:58.531Z,98590.28
2022-09-30T05:01:25.417Z,98584.22
2022-09-30T05:03:52.450Z,98591.22
2022-09-30T05:06:21.057Z,98587.44
2022-09-30T05:08:48.173Z,98594.47
2022-09-30T05:11:19.412Z,98583.25
2022-09-30T05:13:47.480Z,98599.91
2022-09-30T05:16:15.640Z,98616.97
2022-09-30T05:18:46.458Z,98616.00
2022-09-30T05:21:15.626Z,98614.19
2022-09-30T05:23:42.513Z,98613.97
2022-09-30T05:26:12.289Z,98606.91
2022-09-30T05:28:41.071Z,98617.00
2022-09-30T05:31:08.006Z,98627.34
2022-09-30T05:33:36.028Z,98638.06
2022-09-30T05:36:05.871Z,98641.22
2022-09-30T05:38:33.020Z,98640.78
2022-09-30T05:41:07.841Z,98647.00
2022-09-30T05:43:35.370Z,98649.75
2022-09-30T05:46:02.247Z,98642.91
2022-09-30T05:48:29.353Z,98644.00
2022-09-30T05:50:58.182Z,98652.50
2022-09-30T05:53:26.042Z,98648.59
2022-09-30T05:55:53.370Z,98639.06
2022-09-30T05:58:21.408Z,98653.13
2022-09-30T06:00:49.778Z,98653.34
2022-09-30T06:03:18.099Z,98658.13
2022-09-30T06:05:45.988Z,98656.06
2022-09-30T06:08:13.499Z,98655.69
2022-09-30T06:10:42.749Z,98677.00
2022-09-30T06:13:10.972Z,98684.66
2022-09-30T06:15:39.462Z,98689.19
2022-09-30T06:18:06.699Z,98691.31
2022-09-30T06:20:33.908Z,98683.56
2022-09-30T06:23:01.591Z,98690.56
2022-09-30T06:25:29.967Z,98678.75
2022-09-30T06:27:57.591Z,98683.25
2022-09-30T06:30:25.001Z,98692.25
2022-09-30T06:32:54.205Z,98696.31
2022-09-30T06:35:24.108Z,98698.81
2022-09-30T06:37:52.058Z,98698.88
2022-09-30T06:40:21.363Z,98702.38
2022-09-30T06:42:49.770Z,98703.16
2022-09-30T06:45:30.191Z,98713.19
2022-09-30T06:48:01.239Z,98709.28
2022-09-30T06:50:29.227Z,98709.56
2022-09-30T06:53:00.486Z,98709.66
2022-09-30T06:55:29.015Z,98716.47
2022-09-30T06:57:56.960Z,98719.06
2022-09-30T07:00:25.445Z,98728.44
2022-09-30T07:02:56.831Z,98727.53
2022-09-30T07:05:25.892Z,98746.22
2022-09-30T07:07:53.815Z,98747.78
2022-09-30T07:10:21.053Z,98755.66
2022-09-30T07:12:51.713Z,98760.25
2022-09-30T07:15:22.324Z,98756.13
2022-09-30T07:17:58.873Z,98761.06
2022-09-30T07:20:25.609Z,98757.03
2022-09-30T07:22:52.445Z,98760.00
2022-09-30T07:25:19.875Z,98744.53
2022-09-30T07:27:46.984Z,98746.44
2022-09-30T07:30:21.507Z,98751.41
2022-09-30T07:32:53.664Z,98754.63
2022-09-30T07:35:26.318Z,98751.69
2022-09-30T07:37:53.223Z,98751.31
2022-09-30T07:40:20.314Z,98773.75
2022-09-30T07:42:49.993Z,98774.59
2022-09-30T07:45:19.446Z,98781.28
2022-09-30T07:47:49.805Z,98794.19
2022-09-30T07:50:19.621Z,98792.69
2022-09-30T07:52:46.539Z,98791.72
2022-09-30T07:55:13.338Z,98787.38
2022-09-30T07:57:40.123Z,98795.16
2022-09-30T08:00:23.465Z,98780.97
2022-09-30T08:02:54.558Z,98796.06
2022-09-30T08:05:21.751Z,98798.97
2022-09-30T08:07:48.551Z,98797.91
2022-09-30T08:10:15.461Z,98799.06
2022-09-30T08:12:42.291Z,98808.16
2022-09-30T08:15:09.893Z,98804.44
2022-09-30T08:17:36.670Z,98812.00
2022-09-30T08:20:03.910Z,98802.59
2022-09-30T08:22:30.762Z,98797.41
2022-09-30T08:24:57.581Z,98808.38
2022-09-30T08:27:24.461Z,98806.78
2022-09-30T08:29:56.615Z,98805.63
2022-09-30T08:32:25.206Z,98818.50
2022-09-30T08:34:52.109Z,98820.78
2022-09-30T08:37:18.972Z,98807.69
2022-09-30T08:39:46.934Z,98821.97
2022-09-30T08:42:45.759Z,98826.19
2022-09-30T08:45:25.613Z,98825.47
2022-09-30T08:48:25.548Z,98831.69
2022-09-30T08:51:29.483Z,98823.47
2022-09-30T08:53:58.712Z,98832.88
2022-09-30T08:56:31.703Z,98831.41
2022-09-30T08:59:15.361Z,98835.19
2022-09-30T09:01:49.008Z,98829.34
2022-09-30T09:04:16.190Z,98822.22
2022-09-30T09:07:15.426Z,98826.47
2022-09-30T09:09:58.791Z,98840.72
2022-09-30T09:13:20.034Z,98840.94
2022-09-30T09:16:10.393Z,98849.22
2022-09-30T09:19:00.752Z,98843.16
2022-09-30T09:21:42.432Z,98858.53
2022-09-30T09:24:21.323Z,98856.47
2022-09-30T09:26:49.892Z,98865.53
2022-09-30T09:29:44.008Z,98879.91
2022-09-30T09:32:17.818Z,98877.97
2022-09-30T09:34:46.419Z,98867.53
2022-09-30T09:37:50.621Z,98873.31
2022-09-30T09:40:57.545Z,98876.75
2022-09-30T09:43:51.503Z,98872.66
2022-09-30T09:46:25.255Z,98876.19
2022-09-30T09:49:20.949Z,98872.13
2022-09-30T09:52:14.175Z,98881.75
2022-09-30T09:54:45.523Z,98877.88
2022-09-30T09:57:15.956Z,98883.22
2022-09-30T10:02:29.728Z,98896.75
2022-09-30T10:05:04.104Z,98891.00
2022-09-30T10:07:33.916Z,98888.72
2022-09-30T10:10:18.545Z,98883.91
2022-09-30T10:12:49.730Z,98878.91
2022-09-30T10:15:22.730Z,98880.06
2022-09-30T10:17:57.022Z,98876.88
2022-09-30T10:20:35.218Z,98877.91
2022-09-30T10:23:20.686Z,98893.63
2022-09-30T10:26:01.497Z,98892.00
2022-09-30T10:28:31.457Z,98902.81
2022-09-30T10:30:58.278Z,98899.84
2022-09-30T10:33:30.248Z,98909.19
2022-09-30T10:36:07.612Z,98887.16
2022-09-30T10:38:35.509Z,98918.28
2022-09-30T10:41:04.764Z,98900.41
2022-09-30T10:43:43.734Z,98902.72
2022-09-30T10:46:27.522Z,98908.41
2022-09-30T10:48:57.409Z,98906.66
2022-09-30T10:51:28.585Z,98926.97
2022-09-30T10:53:57.244Z,98913.47
2022-09-30T10:56:52.388Z,98921.31
2022-09-30T10:59:33.286Z,98906.06
2022-09-30T11:02:16.045Z,98922.97
2022-09-30T11:05:01.865Z,98930.19
2022-09-30T11:07:40.793Z,98915.78
2022-09-30T11:10:19.237Z,98909.66
2022-09-30T11:12:54.864Z,98922.00
2022-09-30T11:15:30.665Z,98913.78
2022-09-30T11:18:13.167Z,98919.63
2022-09-30T11:20:48.916Z,98920.59
2022-09-30T11:23:27.750Z,98927.75
2022-09-30T11:25:57.863Z,98918.09
2022-09-30T11:29:08.743Z,98930.44
2022-09-30T11:32:08.217Z,98928.59
2022-09-30T11:34:58.419Z,98922.34
2022-09-30T11:37:47.042Z,98929.75
2022-09-30T12:20:27.446Z,98897.00
2022-09-30T12:23:01.372Z,98907.22
2022-09-30T12:25:41.843Z,98897.88
2022-09-30T12:28:45.230Z,98909.25
2022-09-30T12:31:14.871Z,98908.84
2022-09-30T12:34:05.292Z,98894.59
2022-09-30T12:36:56.858Z,98900.09
2022-09-30T12:39:29.641Z,98914.84
2022-09-30T12:42:03.933Z,98899.41
2022-09-30T12:44:36.933Z,98916.22
2022-09-30T12:47:33.202Z,98920.50
2022-09-30T12:50:03.614Z,98928.47
2022-09-30T13:05:31.655Z,98924.66
2022-09-30T13:08:04.632Z,98922.13
2022-09-30T13:10:45.864Z,98912.50
2022-09-30T13:13:37.092Z,98914.09
2022-09-30T13:16:04.816Z,98929.06
2022-09-30T13:18:31.553Z,98935.53
2022-09-30T13:21:10.848Z,98921.28
2022-09-30T13:23:45.759Z,98918.38
2022-09-30T13:26:27.704Z,98939.28
2022-09-30T13:29:00.877Z,98935.16
2022-09-30T13:31:30.234Z,98933.94
2022-09-30T13:34:09.969Z,98933.31
2022-09-30T13:36:51.885Z,98941.53
2022-09-30T13:39:31.875Z,98924.84
2022-09-30T13:42:18.116Z,98931.94
2022-09-30T13:44:57.644Z,98924.69
2022-09-30T13:47:43.515Z,98916.41
2022-09-30T13:50:39.394Z,98921.88
2022-09-30T13:53:13.385Z,98917.25
2022-09-30T13:55:45.447Z,98918.13
2022-09-30T13:58:30.738Z,98925.34
2022-09-30T14:01:05.587Z,98923.75
2022-09-30T14:03:43.515Z,98925.09
2022-09-30T14:06:29.583Z,98925.59
2022-09-30T14:09:21.261Z,98920.09
2022-09-30T14:12:16.590Z,98934.34
2022-09-30T14:15:14.310Z,98939.16
2022-09-30T14:18:27.855Z,98934.31
2022-09-30T14:21:14.755Z,98935.41
2022-09-30T14:23:41.656Z,98947.56
2022-09-30T14:26:30.504Z,98941.47
2022-09-30T14:29:11.581Z,98963.38
2022-09-30T14:31:46.817Z,98950.19
2022-09-30T14:34:16.114Z,98954.09
2022-09-30T14:36:44.755Z,98955.38
2022-09-30T14:39:19.000Z,98953.94
2022-09-30T14:41:56.707Z,98954.22
2022-09-30T14:44:26.067Z,98954.63
2022-09-30T14:47:00.269Z,98965.63
2022-09-30T14:49:34.322Z,98960.00
2022-09-30T14:52:03.452Z,98961.97
2022-09-30T14:54:32.582Z,98969.38
2022-09-30T14:57:02.531Z,98978.19
2022-09-30T14:59:32.121Z,98979.44
2022-09-30T15:02:00.953Z,98978.91
2022-09-30T15:04:33.272Z,98987.78
2022-09-30T15:07:03.419Z,98983.50
2022-09-30T15:09:43.646Z,98982.13
2022-09-30T15:12:16.918Z,98979.72
2022-09-30T15:14:47.784Z,98994.63
2022-09-30T15:17:20.894Z,98993.13
2022-09-30T15:19:50.455Z,98994.34
2022-09-30T15:22:19.219Z,98988.47
2022-09-30T15:24:48.727Z,98987.28
2022-09-30T15:27:36.347Z,98992.75
2022-09-30T15:30:26.623Z,98992.94
2022-09-30T15:33:05.534Z,98987.97
2022-09-30T15:35:33.372Z,98997.00
2022-09-30T15:38:30.476Z,98998.28
2022-09-30T15:41:09.077Z,99000.22
2022-09-30T15:43:43.032Z,99002.34
2022-09-30T15:46:29.568Z,99016.47
2022-09-30T15:48:59.581Z,99005.41
2022-09-30T15:51:43.591Z,99012.69
2022-09-30T15:54:16.192Z,99010.94
2022-09-30T15:56:43.639Z,99008.59
2022-09-30T15:59:14.790Z,99014.25
2022-09-30T16:01:48.670Z,99013.66
2022-09-30T16:04:15.543Z,99016.59
2022-09-30T16:06:45.382Z,99017.66
2022-09-30T16:09:18.001Z,99018.19
2022-09-30T16:11:54.037Z,99017.66
2022-09-30T16:14:27.070Z,99021.94
2022-09-30T16:16:57.628Z,99019.53
2022-09-30T16:19:26.389Z,99015.69
2022-09-30T16:21:55.190Z,99009.91
2022-09-30T16:24:24.646Z,99013.06
2022-09-30T16:26:53.224Z,99017.75
2022-09-30T16:29:21.592Z,99029.25
2022-09-30T16:31:51.665Z,99029.13
2022-09-30T16:34:24.512Z,99018.06
2022-09-30T16:36:53.838Z,99020.81
2022-09-30T16:39:20.742Z,99024.47
2022-09-30T16:41:47.729Z,99030.72
2022-09-30T16:44:14.594Z,99029.47
2022-09-30T16:46:41.344Z,99042.72
2022-09-30T16:49:19.554Z,99034.56
2022-09-30T16:51:47.007Z,99051.91
2022-09-30T16:54:13.966Z,99048.69
2022-09-30T16:56:40.798Z,99057.91
2022-09-30T16:59:13.557Z,99060.63
2022-09-30T17:01:41.251Z,99069.34
2022-09-30T17:04:10.365Z,99066.63
2022-09-30T17:06:39.683Z,99072.06
2022-09-30T17:09:06.516Z,99067.72
2022-09-30T17:11:36.151Z,99080.19
2022-09-30T17:14:04.866Z,99090.25
2022-09-30T17:16:33.137Z,99098.44
2022-09-30T17:19:00.181Z,99094.19
2022-09-30T17:21:27.637Z,99084.88
2022-09-30T17:23:55.874Z,99092.72
2022-09-30T17:26:22.685Z,99090.22
2022-09-30T17:28:49.552Z,99090.41
2022-09-30T17:31:16.369Z,99098.38
2022-09-30T17:33:43.324Z,99095.28
2022-09-30T17:36:13.088Z,99097.28
2022-09-30T17:38:40.632Z,99101.41
2022-09-30T17:41:26.953Z,99106.38
2022-09-30T17:43:53.723Z,99105.66
2022-09-30T17:46:23.501Z,99103.94
2022-09-30T17:48:54.633Z,99107.38
2022-09-30T17:51:21.392Z,99119.75
2022-09-30T17:53:54.344Z,99124.25
2022-09-30T17:56:22.946Z,99124.44
2022-09-30T17:58:50.999Z,99137.81
2022-09-30T18:01:20.822Z,99129.91
2022-09-30T18:03:48.097Z,99122.25
2022-09-30T18:06:14.894Z,99133.88
2022-09-30T18:08:41.775Z,99127.28
2022-09-30T18:11:08.575Z,99137.81
2022-09-30T18:13:35.527Z,99136.13
2022-09-30T18:16:06.944Z,99136.78
2022-09-30T18:18:36.994Z,99135.75
2022-09-30T18:21:03.935Z,99131.19
2022-09-30T18:23:30.774Z,99144.13
2022-09-30T18:25:58.092Z,99146.75
2022-09-30T18:28:25.235Z,99147.50
2022-09-30T18:30:52.115Z,99151.09
2022-09-30T18:33:21.670Z,99153.53
2022-09-30T18:35:48.933Z,99156.06
2022-09-30T18:38:15.807Z,99159.44
2022-09-30T18:40:43.867Z,99164.69
2022-09-30T18:43:14.165Z,99165.59
2022-09-30T18:45:43.500Z,99170.69
2022-09-30T18:48:11.197Z,99171.56
2022-09-30T18:50:38.901Z,99171.88
2022-09-30T18:53:09.880Z,99180.91
2022-09-30T18:55:38.403Z,99180.94
2022-09-30T18:58:05.464Z,99184.56
2022-09-30T19:00:32.463Z,99183.69
2022-09-30T19:02:59.390Z,99183.78
2022-09-30T19:05:26.938Z,99196.06
2022-09-30T19:07:54.611Z,99195.25
2022-09-30T19:10:21.858Z,99193.47
2022-09-30T19:12:49.725Z,99196.25
2022-09-30T19:15:16.586Z,99188.66
2022-09-30T19:17:44.298Z,99192.03
2022-09-30T19:20:12.282Z,99189.56
2022-09-30T19:22:39.208Z,99190.53
2022-09-30T19:25:08.130Z,99192.22
2022-09-30T19:27:37.818Z,99198.22
2022-09-30T19:30:06.578Z,99203.59
2022-09-30T19:32:36.107Z,99207.13
2022-09-30T19:35:10.449Z,99215.13
2022-09-30T19:37:37.727Z,99213.53
2022-09-30T19:40:19.721Z,99218.16
2022-09-30T19:42:49.200Z,99217.28
2022-09-30T19:45:24.044Z,99218.28
2022-09-30T19:47:52.119Z,99208.75
2022-09-30T19:50:19.107Z,99222.72
2022-09-30T19:52:56.006Z,99218.41
2022-09-30T19:55:24.130Z,99220.28
2022-09-30T19:57:51.729Z,99219.41
2022-09-30T20:00:18.958Z,99205.41
2022-09-30T20:02:45.749Z,99194.94
2022-09-30T20:05:12.690Z,99202.06
2022-09-30T20:07:39.879Z,99195.88
2022-09-30T20:10:07.052Z,99196.78
2022-09-30T20:12:33.828Z,99200.28
2022-09-30T20:15:19.178Z,99194.19
2022-09-30T20:17:45.959Z,99196.22
2022-09-30T20:20:31.270Z,99205.13
2022-09-30T20:23:00.858Z,99203.03
2022-09-30T20:25:28.061Z,99229.31
2022-09-30T20:27:54.930Z,99224.16
2022-09-30T20:30:21.785Z,99226.09
2022-09-30T20:32:48.561Z,99228.06
2022-09-30T20:35:15.418Z,99236.78
2022-09-30T20:37:42.420Z,99245.75
2022-09-30T20:40:09.829Z,99250.38
2022-09-30T20:42:38.719Z,99252.16
2022-09-30T20:45:10.741Z,99243.22
2022-09-30T20:47:38.429Z,99235.66
2022-09-30T20:50:06.631Z,99242.75
2022-09-30T20:52:33.469Z,99248.16
2022-09-30T20:55:00.594Z,99251.97
2022-09-30T20:57:31.286Z,99248.63
2022-09-30T21:00:00.194Z,99252.22
2022-09-30T21:02:30.523Z,99255.91
2022-09-30T21:04:58.255Z,99268.16
2022-09-30T21:07:25.759Z,99272.66
2022-09-30T21:09:52.840Z,99276.25
2022-09-30T21:12:19.897Z,99266.03
2022-09-30T21:14:46.759Z,99267.06
2022-09-30T21:17:13.703Z,99280.34
2022-09-30T21:19:40.629Z,99284.78
2022-09-30T21:22:07.741Z,99279.66
2022-09-30T21:24:34.677Z,99278.81
2022-09-30T21:27:01.906Z,99283.38
2022-09-30T21:29:30.746Z,99281.78
2022-09-30T21:31:57.727Z,99278.41
2022-09-30T21:34:24.906Z,99289.78
2022-09-30T21:36:52.018Z,99293.31
2022-09-30T21:39:18.867Z,99297.84
2022-09-30T21:41:46.331Z,99301.41
2022-09-30T21:44:14.086Z,99302.31
2022-09-30T21:46:43.669Z,99312.69
2022-09-30T21:49:23.968Z,99317.75
2022-09-30T21:51:53.008Z,99323.75
2022-09-30T21:54:20.466Z,99318.53
2022-09-30T21:56:48.689Z,99322.84
2022-09-30T21:59:15.926Z,99316.00
2022-09-30T22:01:42.824Z,99325.56
2022-09-30T22:04:10.229Z,99316.94
2022-09-30T22:06:37.102Z,99320.44
2022-09-30T22:09:05.363Z,99311.06
2022-09-30T22:11:32.696Z,99313.13
2022-09-30T22:14:00.718Z,99300.75
2022-09-30T22:16:32.119Z,99305.94
2022-09-30T22:19:01.771Z,99298.97
2022-09-30T22:21:33.790Z,99302.53
2022-09-30T22:24:02.604Z,99306.91
2022-09-30T22:26:30.508Z,99303.44
2022-09-30T22:29:02.497Z,99289.44
2022-09-30T22:31:32.241Z,99283.22
2022-09-30T22:34:20.830Z,99297.31
2022-09-30T22:37:06.876Z,99292.16
2022-09-30T22:39:34.647Z,99291.31
2022-09-30T22:42:01.783Z,99282.84
2022-09-30T22:44:32.553Z,99277.69
2022-09-30T22:47:00.460Z,99278.69
2022-09-30T22:49:28.293Z,99272.66
2022-09-30T22:51:56.923Z,99286.59
2022-09-30T22:54:26.078Z,99292.84
2022-09-30T22:56:54.993Z,99300.03
2022-09-30T22:59:25.607Z,99320.84
2022-09-30T23:01:52.490Z,99306.19
2022-09-30T23:04:24.893Z,99299.25
2022-09-30T23:06:55.544Z,99312.31
2022-09-30T23:09:22.954Z,99305.31
2022-09-30T23:11:53.728Z,99320.22
2022-09-30T23:14:21.996Z,99330.81
2022-09-30T23:16:49.268Z,99327.22
2022-09-30T23:19:16.419Z,99324.59
2022-09-30T23:21:43.679Z,99329.75
2022-09-30T23:24:12.021Z,99334.03
2022-09-30T23:26:39.756Z,99334.03
2022-09-30T23:29:10.409Z,99334.88
2022-09-30T23:31:38.024Z,99333.25
2022-09-30T23:34:05.591Z,99327.16
2022-09-30T23:36:35.808Z,99325.41
2022-09-30T23:39:12.765Z,99319.34
2022-09-30T23:41:40.198Z,99308.16
2022-09-30T23:44:07.325Z,99316.88
2022-09-30T23:46:34.085Z,99314.38
2022-09-30T23:49:00.937Z,99296.88
2022-09-30T23:51:27.708Z,99307.31
2022-09-30T23:53:54.590Z,99302.09
2022-09-30T23:56:21.494Z,99317.31
2022-09-30T23:58:51.695Z,99306.69
